Time;durP1;ratioP1;P1;durP2;ratioP2;P2;SDS_P1;SDS_P2;PMS_P1;PMS_P2;Temp;Humidity;BMP_temperature;BMP_pressure;BME280_temperature;BME280_humidity;BME280_pressure;Samples;Min_cycle;Max_cycle;Signal;HPM_P1;HPM_P2
2022/12/13 00:01:29;;;;;;;24.67;11.90;;;-1.70;67.90;;;;;;4924028;28;114365;-78
2022/12/13 00:03:57;;;;;;;26.80;11.63;;;-1.60;67.90;;;;;;4926077;28;114738;-77
2022/12/13 00:06:25;;;;;;;32.20;13.02;;;-1.60;68.00;;;;;;4885284;28;115286;-77
2022/12/13 00:08:52;;;;;;;29.77;13.68;;;-1.60;67.90;;;;;;4919061;28;114612;-79
2022/12/13 00:11:20;;;;;;;27.75;13.18;;;-1.70;67.90;;;;;;4920456;28;114665;-78
2022/12/13 00:13:47;;;;;;;27.92;14.45;;;-1.60;68.00;;;;;;4907067;28;114838;-78
2022/12/13 00:16:17;;;;;;;27.95;13.43;;;-1.60;68.10;;;;;;4909228;28;115049;-78
2022/12/13 00:18:49;;;;;;;29.83;14.35;;;-1.60;68.10;;;;;;4906182;28;119337;-79
2022/12/13 00:21:17;;;;;;;28.42;13.90;;;-1.60;68.00;;;;;;4906260;28;114598;-78
2022/12/13 00:23:45;;;;;;;26.73;13.38;;;-1.70;67.90;;;;;;4922564;28;114538;-78
2022/12/13 00:26:20;;;;;;;27.88;13.85;;;-1.70;67.90;;;;;;4904899;28;115090;-78
2022/12/13 00:28:50;;;;;;;32.42;14.40;;;-1.60;68.00;;;;;;4920635;28;115043;-78
2022/12/13 00:31:18;;;;;;;27.67;14.25;;;-1.70;67.90;;;;;;4920105;28;114513;-79
2022/12/13 00:34:06;;;;;;;27.50;14.18;;;-1.70;67.90;;;;;;4905323;28;114810;-78
2022/12/13 00:36:33;;;;;;;25.10;12.10;;;-1.70;68.00;;;;;;4905701;28;115065;-79
2022/12/13 00:39:00;;;;;;;32.28;14.73;;;-1.70;68.00;;;;;;4888235;28;115689;-76
2022/12/13 00:41:31;;;;;;;33.13;15.57;;;-1.70;67.90;;;;;;4925406;28;117037;-77
2022/12/13 00:43:58;;;;;;;34.22;15.20;;;-1.70;67.90;;;;;;4891816;28;114625;-77
2022/12/13 00:46:26;;;;;;;29.77;14.70;;;-1.80;67.90;;;;;;4888385;28;117618;-77
2022/12/13 00:48:59;;;;;;;34.38;16.15;;;-1.80;67.90;;;;;;4916710;28;116225;-78
2022/12/13 00:51:28;;;;;;;33.92;17.13;;;-1.90;67.80;;;;;;4926617;28;114612;-77
2022/12/13 00:53:55;;;;;;;34.22;17.63;;;-1.90;67.60;;;;;;4910728;28;114504;-78
2022/12/13 00:56:24;;;;;;;35.22;17.92;;;-1.90;67.60;;;;;;4907644;28;116355;-78
2022/12/13 00:58:52;;;;;;;40.28;19.60;;;-1.90;67.60;;;;;;4922850;28;116088;-78
2022/12/13 01:01:28;;;;;;;40.78;19.23;;;-1.90;67.60;;;;;;4907859;28;114705;-77
2022/12/13 01:03:57;;;;;;;41.67;18.77;;;-1.90;67.70;;;;;;4928118;28;114555;-79
2022/12/13 01:06:35;;;;;;;43.10;19.83;;;-1.90;67.80;;;;;;4908404;28;115015;-78
2022/12/13 01:09:04;;;;;;;39.08;17.52;;;-2.00;67.70;;;;;;4908296;28;114762;-78
2022/12/13 01:11:31;;;;;;;39.97;18.45;;;-2.00;67.80;;;;;;4924508;28;114743;-79
2022/12/13 01:13:58;;;;;;;42.63;19.63;;;-2.00;67.80;;;;;;4908430;28;116275;-78
2022/12/13 01:16:26;;;;;;;41.83;20.05;;;-2.10;67.80;;;;;;4908433;28;115324;-78
2022/12/13 01:18:54;;;;;;;43.70;21.27;;;-2.10;67.80;;;;;;4922092;28;115133;-77
2022/12/13 01:21:22;;;;;;;49.65;20.35;;;-2.10;67.70;;;;;;4924054;28;114632;-78
2022/12/13 01:23:49;;;;;;;48.70;20.98;;;-2.20;67.80;;;;;;4926300;28;114591;-78
2022/12/13 01:26:19;;;;;;;42.92;18.88;;;-2.10;67.80;;;;;;4907588;28;115731;-78
2022/12/13 01:28:46;;;;;;;40.55;19.00;;;-2.20;67.90;;;;;;4909093;28;115891;-78
2022/12/13 01:31:17;;;;;;;40.95;19.63;;;-2.20;67.90;;;;;;4927504;28;114357;-78
2022/12/13 01:33:44;;;;;;;44.25;20.73;;;-2.20;67.70;;;;;;4908981;28;114477;-78
2022/12/13 01:36:15;;;;;;;40.40;19.65;;;-2.20;67.60;;;;;;4923948;28;115018;-79
2022/12/13 01:38:42;;;;;;;38.83;18.05;;;-2.30;67.50;;;;;;4927028;28;114614;-79
2022/12/13 01:41:18;;;;;;;43.50;20.52;;;-2.30;67.50;;;;;;4927906;28;114422;-80
2022/12/13 01:43:45;;;;;;;46.97;18.73;;;-2.30;67.30;;;;;;4907487;28;114780;-79
2022/12/13 01:46:15;;;;;;;41.95;19.10;;;-2.40;67.40;;;;;;4907389;28;115189;-79
2022/12/13 01:48:58;;;;;;;38.03;17.65;;;-2.40;67.40;;;;;;4906910;28;114582;-77
2022/12/13 01:51:41;;;;;;;39.97;17.50;;;-2.40;67.60;;;;;;4925389;28;114403;-78
2022/12/13 01:54:14;;;;;;;38.55;17.25;;;-2.40;67.60;;;;;;4909030;28;114929;-78
2022/12/13 01:56:54;;;;;;;35.33;17.58;;;-2.40;67.70;;;;;;4908748;28;117933;-78
2022/12/13 01:59:27;;;;;;;42.67;18.20;;;-2.40;67.70;;;;;;4909750;28;115951;-78
2022/12/13 02:01:54;;;;;;;42.83;16.25;;;-2.40;67.50;;;;;;4913407;28;114202;-79
2022/12/13 02:04:44;;;;;;;38.10;16.63;;;-2.40;67.60;;;;;;4918547;28;114449;-78
2022/12/13 02:07:17;;;;;;;41.38;17.83;;;-2.40;67.70;;;;;;4907427;28;115271;-78
2022/12/13 02:09:58;;;;;;;38.60;16.48;;;-2.40;67.70;;;;;;4923253;28;114724;-78
2022/12/13 02:12:27;;;;;;;37.33;18.23;;;-2.40;67.70;;;;;;4888781;28;114353;-78
2022/12/13 02:14:58;;;;;;;43.25;18.15;;;-2.40;67.70;;;;;;4927334;28;114390;-78
2022/12/13 02:17:48;;;;;;;45.78;18.98;;;-2.40;67.70;;;;;;4942301;28;115582;-77
2022/12/13 02:20:43;;;;;;;42.50;18.73;;;-2.40;67.70;;;;;;4911063;28;114839;-77
2022/12/13 02:23:34;;;;;;;40.75;18.25;;;-2.40;67.80;;;;;;4924305;28;114708;-77
2022/12/13 02:26:32;;;;;;;42.40;18.38;;;-2.40;67.80;;;;;;4921037;28;114338;-78
2022/12/13 02:29:23;;;;;;;45.50;19.42;;;-2.40;67.70;;;;;;4907371;28;115202;-78
2022/12/13 02:32:15;;;;;;;43.40;20.02;;;-2.40;67.70;;;;;;4908775;28;114770;-78
2022/12/13 02:35:09;;;;;;;41.47;17.55;;;-2.50;67.60;;;;;;4923818;28;114660;-78
2022/12/13 02:37:47;;;;;;;39.57;17.47;;;-2.50;67.80;;;;;;4909252;28;114908;-78
2022/12/13 02:40:24;;;;;;;34.30;16.40;;;-2.40;67.90;;;;;;4909744;28;117740;-78
2022/12/13 02:42:54;;;;;;;41.67;17.95;;;-2.40;68.00;;;;;;4925365;28;116216;-77
2022/12/13 02:45:33;;;;;;;39.83;17.45;;;-2.40;67.80;;;;;;4920490;28;114534;-77
2022/12/13 02:48:02;;;;;;;39.13;18.13;;;-2.40;67.80;;;;;;4907671;28;114667;-78
2022/12/13 02:50:30;;;;;;;35.22;16.13;;;-2.40;67.80;;;;;;4921268;28;115601;-78
2022/12/13 02:52:58;;;;;;;37.53;17.25;;;-2.40;67.90;;;;;;4893095;28;115949;-79
2022/12/13 02:55:25;;;;;;;36.28;17.10;;;-2.40;68.00;;;;;;4908078;28;114704;-78
2022/12/13 02:57:54;;;;;;;46.30;18.25;;;-2.40;68.00;;;;;;4904526;28;114549;-77
2022/12/13 03:01:04;;;;;;;43.88;17.80;;;-2.30;68.00;;;;;;4908242;28;117908;-76
2022/12/13 03:08:33;;;;;;;37.88;18.30;;;-2.20;67.70;;;;;;4932354;28;114455;-78
2022/12/13 03:11:05;;;;;;;44.72;19.38;;;-2.30;67.60;;;;;;4930890;28;114426;-78
2022/12/13 03:13:44;;;;;;;44.25;19.83;;;-2.30;67.70;;;;;;4905178;28;115659;-78
2022/12/13 03:16:36;;;;;;;41.85;20.35;;;-2.30;67.80;;;;;;4907056;28;114752;-78
2022/12/13 03:19:08;;;;;;;45.75;20.15;;;-2.30;67.90;;;;;;4910023;28;115351;-78
2022/12/13 03:21:48;;;;;;;39.90;18.52;;;-2.20;68.00;;;;;;4907075;28;114753;-78
2022/12/13 03:24:16;;;;;;;39.53;18.77;;;-2.20;68.20;;;;;;4920183;28;115139;-77
2022/12/13 03:26:43;;;;;;;42.88;20.80;;;-2.20;68.10;;;;;;4889704;28;114586;-77
2022/12/13 03:29:11;;;;;;;43.67;19.67;;;-2.20;68.00;;;;;;4902961;28;114552;-77
2022/12/13 03:31:38;;;;;;;48.03;20.80;;;-2.20;67.80;;;;;;4926651;28;114381;-78
2022/12/13 03:34:05;;;;;;;38.83;17.73;;;-2.20;67.80;;;;;;4926382;28;114950;-78
2022/12/13 03:36:33;;;;;;;40.85;18.48;;;-2.20;68.00;;;;;;4926550;28;114596;-78
2022/12/13 03:39:00;;;;;;;36.78;17.13;;;-2.20;68.10;;;;;;4907711;28;114577;-77
2022/12/13 03:41:31;;;;;;;38.83;16.55;;;-2.10;68.20;;;;;;4902573;28;114444;-77
2022/12/13 03:44:02;;;;;;;36.28;17.58;;;-2.10;68.10;;;;;;4907746;28;117362;-77
2022/12/13 03:46:29;;;;;;;37.45;16.25;;;-2.10;68.10;;;;;;4912749;28;114845;-76
2022/12/13 03:48:57;;;;;;;39.03;17.73;;;-2.10;68.20;;;;;;4918504;28;114451;-76
2022/12/13 03:51:24;;;;;;;32.13;15.90;;;-2.00;68.10;;;;;;4921450;28;114708;-77
2022/12/13 03:53:52;;;;;;;35.85;18.00;;;-2.00;68.20;;;;;;4907090;28;115661;-77
2022/12/13 03:56:19;;;;;;;38.47;16.52;;;-2.00;68.20;;;;;;4907268;28;114736;-78
2022/12/13 03:58:46;;;;;;;35.55;16.23;;;-1.90;68.20;;;;;;4907738;28;114312;-78
2022/12/13 04:01:14;;;;;;;36.20;16.05;;;-1.90;68.10;;;;;;4916117;28;114372;-77
2022/12/13 04:03:43;;;;;;;34.17;16.40;;;-1.90;68.10;;;;;;4918141;28;115335;-77
2022/12/13 04:06:11;;;;;;;29.25;14.43;;;-1.90;68.10;;;;;;4921023;28;114597;-78
2022/12/13 04:08:38;;;;;;;28.95;14.65;;;-1.90;68.30;;;;;;4907409;28;114239;-76
2022/12/13 04:13:52;;;;;;;30.77;14.18;;;-1.90;68.50;;;;;;4911754;28;115020;-77
2022/12/13 04:16:20;;;;;;;28.80;14.55;;;-1.80;68.70;;;;;;4917765;28;114937;-77
2022/12/13 04:18:47;;;;;;;28.10;14.15;;;-1.80;68.60;;;;;;4924224;28;114438;-77
2022/12/13 04:21:15;;;;;;;26.30;13.60;;;-1.70;68.60;;;;;;4925758;28;114640;-78
2022/12/13 04:23:42;;;;;;;25.63;13.23;;;-1.70;68.60;;;;;;4914056;28;115114;-77
2022/12/13 04:26:09;;;;;;;23.55;12.23;;;-1.60;68.70;;;;;;4908426;28;115290;-77
2022/12/13 04:28:36;;;;;;;23.63;12.38;;;-1.60;68.60;;;;;;4911352;28;114440;-78
2022/12/13 04:31:03;;;;;;;19.75;10.02;;;-1.60;68.50;;;;;;4918293;28;114248;-78
2022/12/13 04:33:32;;;;;;;16.63;9.45;;;-1.50;68.50;;;;;;4929118;28;115006;-78
2022/12/13 04:35:59;;;;;;;16.55;8.52;;;-1.60;68.40;;;;;;4901327;28;114580;-78
2022/12/13 04:38:26;;;;;;;19.55;9.05;;;-1.50;68.40;;;;;;4910286;28;114718;-76
2022/12/13 04:41:03;;;;;;;17.60;9.70;;;-1.50;68.30;;;;;;4923956;28;114616;-77
2022/12/13 04:43:30;;;;;;;17.25;9.10;;;-1.50;68.20;;;;;;4910091;28;115188;-77
2022/12/13 04:45:57;;;;;;;15.65;9.18;;;-1.50;68.10;;;;;;4922497;28;115358;-78
2022/12/13 04:48:25;;;;;;;21.88;9.55;;;-1.50;67.90;;;;;;4910522;28;116373;-75
2022/12/13 04:50:58;;;;;;;15.90;8.82;;;-1.50;67.70;;;;;;4910652;28;115567;-77
2022/12/13 04:53:30;;;;;;;14.73;8.27;;;-1.50;67.70;;;;;;4926297;28;116313;-77
2022/12/13 04:55:58;;;;;;;15.45;8.40;;;-1.40;67.50;;;;;;4928788;28;115864;-78
2022/12/13 04:58:26;;;;;;;16.70;8.45;;;-1.40;67.60;;;;;;4909730;28;114393;-77
2022/12/13 05:00:53;;;;;;;12.38;7.32;;;-1.40;67.60;;;;;;4909248;28;114788;-78
2022/12/13 05:03:20;;;;;;;16.17;8.70;;;-1.40;67.50;;;;;;4937985;28;115367;-77
2022/12/13 05:05:50;;;;;;;16.83;8.60;;;-1.40;67.70;;;;;;4911979;28;114813;-79
2022/12/13 05:08:17;;;;;;;18.33;9.05;;;-1.40;67.70;;;;;;4909605;28;114428;-78
2022/12/13 05:10:45;;;;;;;16.73;9.20;;;-1.40;67.60;;;;;;4914457;28;114673;-80
2022/12/13 05:13:12;;;;;;;21.67;10.80;;;-1.40;67.40;;;;;;4910112;28;115290;-78
2022/12/13 05:15:40;;;;;;;21.20;9.73;;;-1.40;67.30;;;;;;4911658;28;116531;-78
2022/12/13 05:18:09;;;;;;;30.10;11.82;;;-1.40;67.40;;;;;;4913764;28;114584;-78
2022/12/13 05:20:40;;;;;;;27.98;10.93;;;-1.40;67.40;;;;;;4901980;28;114887;-79
2022/12/13 05:23:08;;;;;;;20.65;8.88;;;-1.40;67.20;;;;;;4911838;28;116296;-78
2022/12/13 05:25:36;;;;;;;24.45;10.50;;;-1.40;67.20;;;;;;4908523;28;114689;-79
2022/12/13 05:28:06;;;;;;;20.55;9.68;;;-1.40;67.20;;;;;;4925811;28;114561;-77
2022/12/13 05:30:57;;;;;;;15.95;8.80;;;-1.40;67.20;;;;;;4910147;28;114412;-78
2022/12/13 05:33:25;;;;;;;19.95;8.93;;;-1.40;67.00;;;;;;4913261;28;115044;-78
2022/12/13 05:35:52;;;;;;;16.55;9.30;;;-1.50;67.00;;;;;;4914150;28;115755;-78
2022/12/13 05:38:26;;;;;;;;;;;-1.40;66.90;;;;;;4912511;28;114580;-78
2022/12/13 05:40:53;;;;;;;13.68;7.30;;;-1.50;66.90;;;;;;4913942;28;114555;-78
2022/12/13 05:43:22;;;;;;;14.55;7.68;;;-1.60;66.70;;;;;;4925774;28;115263;-78
2022/12/13 05:46:08;;;;;;;14.13;7.63;;;-1.60;66.80;;;;;;4910145;28;114801;-78
2022/12/13 05:48:35;;;;;;;12.98;6.97;;;-1.70;66.70;;;;;;4904998;28;115139;-77
2022/12/13 05:51:04;;;;;;;11.18;6.43;;;-1.60;66.70;;;;;;4911874;28;114683;-78
2022/12/13 05:53:41;;;;;;;15.55;7.57;;;-1.60;66.60;;;;;;4903663;28;115250;-78
2022/12/13 05:56:12;;;;;;;15.23;7.82;;;-1.60;66.50;;;;;;4909681;28;114761;-78
2022/12/13 05:58:48;;;;;;;15.00;7.30;;;-1.70;66.40;;;;;;4911831;28;114814;-78
2022/12/13 06:01:24;;;;;;;13.80;7.38;;;-1.60;66.40;;;;;;4890528;28;114644;-78
2022/12/13 06:03:51;;;;;;;12.50;6.68;;;-1.70;66.30;;;;;;4912168;28;115155;-77
2022/12/13 06:06:18;;;;;;;16.50;7.18;;;-1.70;66.30;;;;;;4891720;28;114717;-79
2022/12/13 06:08:45;;;;;;;14.00;6.32;;;-1.70;66.40;;;;;;4912771;28;114570;-78
2022/12/13 06:11:15;;;;;;;13.48;6.18;;;-1.70;66.40;;;;;;4910178;28;114853;-78
2022/12/13 06:13:59;;;;;;;13.48;6.47;;;-1.70;66.40;;;;;;4914803;28;115335;-78
2022/12/13 06:16:27;;;;;;;11.55;6.85;;;-1.70;66.20;;;;;;4891368;28;116674;-78
2022/12/13 06:18:55;;;;;;;12.93;7.22;;;-1.70;66.30;;;;;;4911589;28;114489;-79
2022/12/13 06:21:33;;;;;;;12.23;6.65;;;-1.70;66.30;;;;;;4913132;28;114444;-79
2022/12/13 06:24:16;;;;;;;11.50;6.22;;;-1.70;66.30;;;;;;4909630;28;115017;-78
2022/12/13 06:26:43;;;;;;;12.93;6.43;;;-1.70;66.40;;;;;;4912166;28;114829;-78
2022/12/13 06:29:14;;;;;;;16.63;6.90;;;-1.60;66.30;;;;;;4909221;28;116003;-79
2022/12/13 06:31:53;;;;;;;13.13;6.40;;;-1.60;66.20;;;;;;4912245;28;114526;-79
2022/12/13 06:34:31;;;;;;;15.40;7.35;;;-1.60;66.20;;;;;;4908767;28;115172;-79
2022/12/13 06:36:58;;;;;;;12.18;6.43;;;-1.60;66.10;;;;;;4910977;28;114793;-79
2022/12/13 06:39:27;;;;;;;14.50;7.00;;;-1.70;66.00;;;;;;4911951;28;114465;-78
2022/12/13 06:42:06;;;;;;;13.00;6.65;;;-1.60;66.00;;;;;;4908996;28;114901;-79
2022/12/13 06:44:37;;;;;;;16.58;9.35;;;-1.60;65.90;;;;;;4904919;28;115132;-78
2022/12/13 06:47:05;;;;;;;17.73;8.82;;;-1.60;65.90;;;;;;4907925;28;114728;-77
2022/12/13 06:49:39;;;;;;;17.70;9.03;;;-1.60;65.80;;;;;;4907496;28;114528;-79
2022/12/13 06:52:10;;;;;;;18.02;8.93;;;-1.60;65.80;;;;;;4907035;28;114548;-78
2022/12/13 06:54:38;;;;;;;19.30;8.50;;;-1.60;65.60;;;;;;4909738;28;115226;-77
2022/12/13 06:57:05;;;;;;;17.23;8.90;;;-1.60;65.70;;;;;;4919387;28;114771;-78
2022/12/13 06:59:32;;;;;;;14.43;8.10;;;-1.60;65.60;;;;;;4908008;28;114378;-78
2022/12/13 07:01:59;;;;;;;16.52;8.23;;;-1.70;65.60;;;;;;4923627;28;114565;-78
2022/12/13 07:04:31;;;;;;;13.27;7.20;;;-1.60;65.70;;;;;;4926548;28;115079;-77
2022/12/13 07:06:58;;;;;;;16.08;8.15;;;-1.60;65.60;;;;;;4924900;28;114937;-77
2022/12/13 07:09:29;;;;;;;11.82;7.00;;;-1.60;65.40;;;;;;4924896;28;114397;-77
2022/12/13 07:11:57;;;;;;;15.35;7.03;;;-1.60;65.50;;;;;;4925667;28;114583;-77
2022/12/13 07:14:24;;;;;;;13.43;6.97;;;-1.60;65.50;;;;;;4921840;28;115276;-77
2022/12/13 07:16:51;;;;;;;14.60;6.85;;;-1.60;65.60;;;;;;4905985;28;114803;-76
2022/12/13 07:19:27;;;;;;;14.95;7.78;;;-1.50;65.50;;;;;;4905876;28;114782;-77
2022/12/13 07:22:04;;;;;;;17.88;8.20;;;-1.50;65.40;;;;;;4924235;28;114312;-78
2022/12/13 07:24:33;;;;;;;14.73;8.30;;;-1.40;65.50;;;;;;4908842;28;115369;-77
2022/12/13 07:27:03;;;;;;;15.70;7.75;;;-1.40;65.50;;;;;;4905795;28;115896;-78
2022/12/13 07:29:32;;;;;;;14.77;8.27;;;-1.40;65.30;;;;;;4906471;28;114452;-77
2022/12/13 07:31:59;;;;;;;12.43;6.93;;;-1.40;65.40;;;;;;4920685;28;114747;-77
2022/12/13 07:34:29;;;;;;;15.10;6.75;;;-1.40;65.30;;;;;;4910344;28;115244;-78
2022/12/13 07:36:56;;;;;;;13.85;6.35;;;-1.30;65.30;;;;;;4918013;28;115242;-79
2022/12/13 07:39:27;;;;;;;13.48;7.07;;;-1.30;65.10;;;;;;4912187;28;114526;-78
2022/12/13 07:41:54;;;;;;;16.55;7.55;;;-1.30;65.00;;;;;;4853077;28;114860;-78
2022/12/13 07:44:54;;;;;;;16.38;7.68;;;-1.30;65.30;;;;;;4886061;28;116608;-78
2022/12/13 07:47:22;;;;;;;17.63;8.30;;;-1.10;65.60;;;;;;4906534;28;114828;-79
2022/12/13 07:49:49;;;;;;;14.32;8.57;;;-1.10;65.50;;;;;;4907359;28;114381;-78
2022/12/13 07:52:16;;;;;;;18.73;8.52;;;-1.10;65.30;;;;;;4920454;28;114504;-79
2022/12/13 07:54:43;;;;;;;15.25;7.75;;;-1.10;65.10;;;;;;4925598;28;115058;-77
2022/12/13 07:57:10;;;;;;;17.20;8.35;;;-1.00;65.00;;;;;;4925872;28;114683;-76
2022/12/13 07:59:38;;;;;;;15.57;8.05;;;-0.90;64.90;;;;;;4923621;28;114346;-77
2022/12/13 08:02:06;;;;;;;16.63;8.10;;;-0.90;64.70;;;;;;4924762;28;114336;-77
2022/12/13 08:04:33;;;;;;;16.08;8.27;;;-0.90;64.50;;;;;;4906755;28;115413;-77
2022/12/13 08:07:08;;;;;;;15.68;8.00;;;-0.80;64.40;;;;;;4896775;28;114715;-77
2022/12/13 08:09:35;;;;;;;15.75;8.43;;;-0.80;64.10;;;;;;4914088;28;114457;-78
2022/12/13 08:12:04;;;;;;;14.07;7.63;;;-0.70;64.00;;;;;;4909125;28;114665;-78
2022/12/13 08:14:31;;;;;;;17.15;7.65;;;-0.50;63.80;;;;;;4899612;28;116252;-81
2022/12/13 08:16:59;;;;;;;14.38;7.75;;;-0.40;63.70;;;;;;4906078;28;115273;-77
2022/12/13 08:19:27;;;;;;;14.00;7.22;;;-0.30;63.60;;;;;;4921523;28;114710;-79
2022/12/13 08:21:58;;;;;;;13.00;8.02;;;-0.30;63.40;;;;;;4926021;28;114309;-76
2022/12/13 08:24:31;;;;;;;15.02;8.23;;;-0.20;63.00;;;;;;4914420;28;115105;-78
2022/12/13 08:27:00;;;;;;;15.25;8.02;;;-0.10;63.00;;;;;;4912709;28;114651;-78
2022/12/13 08:29:30;;;;;;;16.13;7.82;;;-0.10;62.70;;;;;;4926085;28;114386;-79
2022/12/13 08:32:04;;;;;;;10.55;6.15;;;0.00;62.70;;;;;;4913402;28;114530;-78
2022/12/13 08:34:36;;;;;;;14.65;8.10;;;0.00;62.70;;;;;;4891698;28;116450;-78
2022/12/13 08:37:06;;;;;;;17.70;8.52;;;0.10;62.60;;;;;;4895478;28;115572;-78
2022/12/13 08:39:38;;;;;;;19.42;9.50;;;0.10;62.40;;;;;;4904515;28;114794;-79
2022/12/13 08:42:14;;;;;;;19.60;10.43;;;0.10;62.30;;;;;;4886011;28;114584;-78
2022/12/13 08:44:49;;;;;;;17.52;10.02;;;0.10;62.00;;;;;;4873338;28;115356;-78
2022/12/13 08:47:23;;;;;;;17.33;9.05;;;0.10;61.90;;;;;;4884219;28;114743;-78
2022/12/13 08:49:58;;;;;;;;;;;0.20;62.10;;;;;;4862882;28;114780;-77
2022/12/13 08:52:32;;;;;;;13.30;7.20;;;0.20;62.60;;;;;;4893919;28;114721;-77
2022/12/13 08:55:14;;;;;;;14.52;7.57;;;0.30;62.40;;;;;;4884884;28;115335;-78
2022/12/13 08:57:44;;;;;;;13.50;8.02;;;0.40;61.90;;;;;;4840214;28;115720;-78
2022/12/13 09:00:16;;;;;;;15.20;7.82;;;0.40;61.90;;;;;;4900815;28;114870;-78
2022/12/13 09:02:46;;;;;;;14.95;7.95;;;0.40;61.60;;;;;;4904383;28;114602;-79
2022/12/13 09:05:14;;;;;;;12.88;7.40;;;0.40;61.40;;;;;;4904798;28;115261;-78
2022/12/13 09:08:02;;;;;;;12.98;6.85;;;0.40;61.20;;;;;;4908249;28;114719;-78
2022/12/13 09:11:03;;;;;;;12.80;7.10;;;0.50;61.10;;;;;;4894815;28;114425;-77
2022/12/13 09:13:55;;;;;;;11.70;6.63;;;0.60;60.50;;;;;;4920739;28;114718;-79
2022/12/13 09:16:36;;;;;;;12.65;6.60;;;0.60;60.90;;;;;;4912617;28;115200;-78
2022/12/13 09:19:07;;;;;;;14.20;7.00;;;0.70;60.40;;;;;;4913575;28;114624;-77
2022/12/13 09:21:58;;;;;;;11.27;6.07;;;0.70;60.10;;;;;;4914833;28;114553;-78
2022/12/13 09:24:29;;;;;;;12.73;7.32;;;0.80;59.80;;;;;;4913753;28;116164;-77
2022/12/13 09:27:09;;;;;;;12.48;5.55;;;0.80;59.60;;;;;;4914187;28;115251;-78
2022/12/13 09:29:58;;;;;;;12.35;6.68;;;0.90;59.30;;;;;;4914064;28;114913;-77
2022/12/13 09:32:31;;;;;;;13.57;7.65;;;0.90;59.50;;;;;;4914011;28;114410;-77
2022/12/13 09:35:03;;;;;;;11.68;6.47;;;1.00;59.20;;;;;;4877672;28;114974;-78
2022/12/13 09:37:31;;;;;;;10.52;6.43;;;1.10;59.00;;;;;;4899738;28;115223;-77
2022/12/13 09:39:59;;;;;;;10.57;6.35;;;1.10;58.40;;;;;;4900611;28;114855;-78
2022/12/13 09:42:43;;;;;;;13.17;5.57;;;1.00;58.20;;;;;;4911957;28;114887;-79
2022/12/13 09:45:24;;;;;;;10.60;5.45;;;1.00;58.30;;;;;;4886224;28;114536;-78
2022/12/13 09:47:58;;;;;;;9.88;5.00;;;1.00;58.00;;;;;;4892817;28;115300;-78
2022/12/13 09:50:34;;;;;;;10.80;4.88;;;0.80;57.60;;;;;;4874509;28;114753;-78
2022/12/13 09:53:05;;;;;;;10.93;5.63;;;0.70;56.80;;;;;;4893188;28;114787;-79
2022/12/13 09:55:51;;;;;;;12.00;5.32;;;0.70;57.50;;;;;;4914017;28;114817;-79
2022/12/13 09:58:31;;;;;;;11.57;5.82;;;0.60;57.10;;;;;;4884150;28;117747;-78
2022/12/13 10:00:58;;;;;;;9.70;5.72;;;0.60;56.90;;;;;;4874407;28;115557;-78
2022/12/13 10:03:25;;;;;;;10.07;5.50;;;0.50;57.10;;;;;;4889358;28;114844;-79
2022/12/13 10:06:20;;;;;;;15.13;6.03;;;0.40;57.10;;;;;;4909780;28;114529;-78
2022/12/13 10:08:57;;;;;;;11.00;6.05;;;0.40;57.20;;;;;;4909225;28;115787;-78
2022/12/13 10:11:52;;;;;;;12.73;5.55;;;0.40;57.20;;;;;;4895025;28;114722;-79
2022/12/13 10:14:33;;;;;;;11.00;5.20;;;0.40;57.00;;;;;;4886024;28;115596;-77
2022/12/13 10:17:47;;;;;;;11.23;5.95;;;0.20;56.90;;;;;;4869736;28;115892;-78
2022/12/13 10:20:34;;;;;;;12.27;6.00;;;0.10;56.90;;;;;;4903046;28;116922;-79
2022/12/13 10:23:25;;;;;;;9.38;5.55;;;0.10;57.20;;;;;;4898615;28;114751;-77
2022/12/13 10:26:19;;;;;;;14.00;6.68;;;0.10;57.30;;;;;;4911636;28;114861;-79
2022/12/13 10:29:00;;;;;;;12.65;6.05;;;0.10;57.40;;;;;;4893700;28;114883;-79
2022/12/13 10:31:28;;;;;;;10.02;6.00;;;0.10;57.70;;;;;;4903077;28;115125;-78
2022/12/13 10:33:57;;;;;;;17.25;7.80;;;0.10;57.80;;;;;;4905914;28;114721;-78
2022/12/13 10:36:37;;;;;;;11.10;6.45;;;0.10;58.00;;;;;;4913109;28;114369;-78
2022/12/13 10:39:05;;;;;;;12.45;6.45;;;0.20;57.80;;;;;;4912661;28;114439;-78
2022/12/13 10:41:34;;;;;;;9.63;5.03;;;0.20;57.90;;;;;;4907363;28;115215;-78
2022/12/13 10:44:10;;;;;;;13.18;6.53;;;0.20;57.50;;;;;;4908181;28;115013;-78
2022/12/13 10:47:09;;;;;;;12.07;5.95;;;0.20;57.30;;;;;;4922534;28;114886;-78
2022/12/13 10:49:53;;;;;;;11.45;5.95;;;0.20;57.30;;;;;;4903918;28;114481;-79
2022/12/13 10:52:45;;;;;;;13.00;6.22;;;0.20;57.50;;;;;;4910354;28;115088;-78
2022/12/13 10:55:34;;;;;;;13.18;6.93;;;0.20;57.50;;;;;;4926183;28;114700;-79
2022/12/13 10:58:06;;;;;;;13.77;6.38;;;0.30;57.10;;;;;;4922390;28;114405;-79
2022/12/13 11:00:46;;;;;;;10.95;6.70;;;0.30;57.40;;;;;;4904530;28;114558;-79
2022/12/13 11:03:31;;;;;;;10.50;5.78;;;0.30;57.00;;;;;;4914553;28;115353;-77
2022/12/13 11:06:17;;;;;;;10.73;5.55;;;0.20;56.90;;;;;;4911259;28;114778;-78
2022/12/13 11:08:45;;;;;;;9.18;5.47;;;0.20;57.00;;;;;;4915498;28;114426;-80
2022/12/13 11:11:27;;;;;;;11.07;5.85;;;0.20;57.20;;;;;;4914048;28;115234;-78
2022/12/13 11:14:00;;;;;;;13.05;5.72;;;0.20;57.30;;;;;;4912728;28;115018;-79
2022/12/13 11:16:35;;;;;;;13.18;5.97;;;0.20;57.70;;;;;;4891905;28;117705;-78
2022/12/13 11:19:33;;;;;;;10.82;5.25;;;0.20;57.40;;;;;;4917906;28;114780;-77
2022/12/13 11:22:00;;;;;;;10.45;5.10;;;0.20;57.30;;;;;;4910965;28;114694;-78
2022/12/13 11:24:33;;;;;;;9.10;4.85;;;0.20;57.40;;;;;;4901479;28;115055;-76
2022/12/13 11:27:22;;;;;;;8.25;4.13;;;0.10;57.40;;;;;;4921082;28;114651;-78
2022/12/13 11:30:15;;;;;;;8.20;4.53;;;0.20;57.20;;;;;;4902654;28;114706;-77
2022/12/13 11:33:12;;;;;;;9.15;4.82;;;0.10;56.90;;;;;;4928074;28;114619;-78
2022/12/13 11:36:10;;;;;;;10.38;5.43;;;0.10;57.00;;;;;;4913323;28;115148;-78
2022/12/13 11:39:05;;;;;;;7.93;4.60;;;0.10;57.20;;;;;;4916719;28;115790;-80
2022/12/13 11:41:39;;;;;;;;;;;0.10;56.80;;;;;;4927597;28;114384;-79
2022/12/13 11:44:27;;;;;;;7.88;4.35;;;0.10;57.60;;;;;;4916528;28;114467;-79
2022/12/13 11:46:57;;;;;;;8.68;4.72;;;0.10;56.90;;;;;;4906938;28;115819;-79
2022/12/13 11:49:39;;;;;;;9.48;5.03;;;-0.10;57.10;;;;;;4907310;28;116115;-79
2022/12/13 11:52:39;;;;;;;9.18;4.85;;;0.00;57.00;;;;;;4906345;28;114652;-78
2022/12/13 11:55:33;;;;;;;9.90;4.70;;;-0.10;57.00;;;;;;4921808;28;114701;-78
2022/12/13 11:58:12;;;;;;;11.05;5.90;;;-0.10;57.30;;;;;;4907260;28;115185;-80
2022/12/13 12:01:11;;;;;;;9.75;5.38;;;-0.10;57.10;;;;;;4919934;28;115155;-80
2022/12/13 12:03:48;;;;;;;10.23;5.28;;;-0.10;57.00;;;;;;4906236;28;114613;-79
2022/12/13 12:06:26;;;;;;;9.60;5.63;;;-0.10;57.10;;;;;;4888364;28;114281;-78
2022/12/13 12:09:05;;;;;;;10.77;5.57;;;-0.20;57.00;;;;;;4906460;28;115200;-79
2022/12/13 12:12:11;;;;;;;11.73;5.53;;;-0.20;57.00;;;;;;4917849;28;117043;-79
2022/12/13 12:14:59;;;;;;;11.02;5.82;;;-0.30;56.90;;;;;;4922032;28;114776;-79
2022/12/13 12:17:45;;;;;;;10.23;5.43;;;-0.40;57.10;;;;;;4914811;28;114651;-79
2022/12/13 12:20:51;;;;;;;9.95;5.63;;;-0.50;57.20;;;;;;4905192;28;115134;-79
2022/12/13 12:24:06;;;;;;;13.07;5.90;;;-0.60;57.40;;;;;;4914779;28;114759;-79
2022/12/13 12:27:34;;;;;;;11.05;5.90;;;-0.50;57.70;;;;;;4922684;28;114395;-79
2022/12/13 12:30:38;;;;;;;14.35;6.47;;;-0.60;57.90;;;;;;4912126;28;114380;-78
2022/12/13 12:33:27;;;;;;;14.70;5.80;;;-0.60;57.70;;;;;;4907746;28;115384;-79
2022/12/13 12:36:26;;;;;;;12.38;6.28;;;-0.60;57.80;;;;;;4906209;28;114982;-78
2022/12/13 12:39:20;;;;;;;13.55;6.15;;;-0.60;57.90;;;;;;4914970;28;114540;-78
2022/12/13 12:42:24;;;;;;;11.60;6.07;;;-0.50;58.10;;;;;;4892898;28;114569;-79
2022/12/13 12:45:16;;;;;;;12.80;5.53;;;-0.50;58.30;;;;;;4909107;28;115995;-80
2022/12/13 12:48:24;;;;;;;10.88;5.60;;;-0.40;58.00;;;;;;4907636;28;114697;-78
2022/12/13 12:51:44;;;;;;;9.88;5.03;;;-0.40;58.10;;;;;;4914294;28;114554;-79
2022/12/13 12:54:46;;;;;;;14.27;7.97;;;-0.50;58.00;;;;;;4915321;28;114533;-79
2022/12/13 12:57:28;;;;;;;12.43;6.07;;;-0.50;58.00;;;;;;4886089;28;115174;-78
2022/12/13 13:00:03;;;;;;;12.00;6.90;;;-0.50;58.40;;;;;;4919627;28;114832;-79
2022/12/13 13:03:05;;;;;;;12.27;6.57;;;-0.40;58.30;;;;;;4902221;28;114436;-78
2022/12/13 13:06:04;;;;;;;11.23;6.10;;;-0.30;58.40;;;;;;4910846;28;114572;-79
2022/12/13 13:08:55;;;;;;;13.13;6.03;;;-0.40;58.40;;;;;;4908764;28;115181;-79
2022/12/13 13:11:24;;;;;;;11.18;5.85;;;-0.40;58.10;;;;;;4920565;28;115823;-79
2022/12/13 13:13:58;;;;;;;13.90;6.65;;;-0.40;58.30;;;;;;4908739;28;114443;-78
2022/12/13 13:16:42;;;;;;;11.98;6.00;;;-0.40;58.00;;;;;;4928211;28;114857;-78
2022/12/13 13:19:12;;;;;;;15.80;6.53;;;-0.40;58.20;;;;;;4907601;28;115483;-79